Time;durP1;ratioP1;P1;durP2;ratioP2;P2;SDS_P1;SDS_P2;PMS_P1;PMS_P2;Temp;Humidity;BMP_temperature;BMP_pressure;BME280_temperature;BME280_humidity;BME280_pressure;Samples;Min_cycle;Max_cycle;Signal;HPM_P1;HPM_P2
2023/12/03 00:00:02;;;;;;;5.63;5.15;;;;;;;;;;5022496;28;20458;-75
2023/12/03 00:02:28;;;;;;;4.93;3.05;;;;;;;;;;5023848;28;20041;-74
2023/12/03 00:04:55;;;;;;;6.85;3.25;;;;;;;;;;5020796;28;20096;-75
2023/12/03 00:07:23;;;;;;;8.98;7.75;;;;;;;;;;5019420;28;20108;-74
2023/12/03 00:09:49;;;;;;;7.50;3.60;;;;;;;;;;5026171;28;20409;-74
2023/12/03 00:12:16;;;;;;;8.15;3.70;;;;;;;;;;5024198;28;20061;-74
2023/12/03 00:14:44;;;;;;;5.78;3.30;;;;;;;;;;5022589;28;20100;-74
2023/12/03 00:17:10;;;;;;;10.15;9.40;;;;;;;;;;5023198;28;20049;-74
2023/12/03 00:19:37;;;;;;;4.13;3.72;;;;;;;;;;5024355;28;20168;-74
2023/12/03 00:22:03;;;;;;;10.80;10.18;;;;;;;;;;5030828;28;20050;-75
2023/12/03 00:24:30;;;;;;;7.50;7.00;;;;;;;;;;5027638;28;20049;-74
2023/12/03 00:26:56;;;;;;;8.52;7.70;;;;;;;;;;5033488;28;20103;-75
2023/12/03 00:29:23;;;;;;;5.90;3.50;;;;;;;;;;5033580;28;20041;-75
2023/12/03 00:31:51;;;;;;;10.73;8.75;;;;;;;;;;5033474;28;20045;-75
2023/12/03 00:34:18;;;;;;;7.38;4.65;;;;;;;;;;5033632;28;20041;-75
2023/12/03 00:36:45;;;;;;;7.03;3.88;;;;;;;;;;5033480;28;20498;-74
2023/12/03 00:39:11;;;;;;;7.30;5.75;;;;;;;;;;5033350;28;20111;-75
2023/12/03 00:41:38;;;;;;;3.40;3.13;;;;;;;;;;5027495;28;20048;-75
2023/12/03 00:44:04;;;;;;;13.48;12.00;;;;;;;;;;5026689;28;20049;-74
2023/12/03 00:46:31;;;;;;;10.75;5.57;;;;;;;;;;5027071;28;20053;-73
2023/12/03 00:48:59;;;;;;;9.15;5.00;;;;;;;;;;5033125;28;20052;-73
2023/12/03 00:51:25;;;;;;;6.07;3.90;;;;;;;;;;5023213;28;20513;-74
2023/12/03 00:53:52;;;;;;;4.38;3.72;;;;;;;;;;5032966;28;20486;-73
2023/12/03 00:56:18;;;;;;;7.78;7.03;;;;;;;;;;5033196;28;20056;-73
2023/12/03 00:58:45;;;;;;;7.65;3.97;;;;;;;;;;5032849;28;20107;-73
2023/12/03 01:01:11;;;;;;;7.53;4.38;;;;;;;;;;5032919;28;20461;-75
2023/12/03 01:03:38;;;;;;;13.70;8.90;;;;;;;;;;5033106;28;20045;-74
2023/12/03 01:06:06;;;;;;;6.30;5.78;;;;;;;;;;5032626;28;20456;-73
2023/12/03 01:08:32;;;;;;;7.57;7.00;;;;;;;;;;5026434;28;20092;-73
2023/12/03 01:10:59;;;;;;;6.68;5.93;;;;;;;;;;5032536;28;20053;-73
2023/12/03 01:13:25;;;;;;;11.65;10.75;;;;;;;;;;5015579;28;20081;-74
2023/12/03 01:15:52;;;;;;;9.27;8.35;;;;;;;;;;5012940;28;20115;-75
2023/12/03 01:18:18;;;;;;;9.88;9.18;;;;;;;;;;5012830;28;20060;-75
2023/12/03 01:20:45;;;;;;;9.23;8.32;;;;;;;;;;5012847;28;20108;-74
2023/12/03 01:23:13;;;;;;;7.43;3.42;;;;;;;;;;5012701;28;20077;-74
2023/12/03 01:25:39;;;;;;;10.65;9.75;;;;;;;;;;5012977;28;20104;-74
2023/12/03 01:28:06;;;;;;;7.18;4.53;;;;;;;;;;5013465;28;20509;-74
2023/12/03 01:30:32;;;;;;;15.70;4.90;;;;;;;;;;5025031;28;20050;-74
2023/12/03 01:32:59;;;;;;;4.25;3.30;;;;;;;;;;5023117;28;20460;-74
2023/12/03 01:35:26;;;;;;;8.43;3.47;;;;;;;;;;5032376;28;20108;-74
2023/12/03 01:37:52;;;;;;;7.63;3.88;;;;;;;;;;5032431;28;20045;-74
2023/12/03 01:40:20;;;;;;;4.60;3.38;;;;;;;;;;5032274;28;20072;-74
2023/12/03 01:42:46;;;;;;;7.32;3.38;;;;;;;;;;5031640;28;20111;-75
2023/12/03 01:45:13;;;;;;;7.60;3.83;;;;;;;;;;5031411;28;20045;-74
2023/12/03 01:47:40;;;;;;;9.85;4.38;;;;;;;;;;5026849;28;20062;-74
2023/12/03 01:50:07;;;;;;;8.85;3.72;;;;;;;;;;5022258;28;20048;-74
2023/12/03 01:52:34;;;;;;;6.32;3.83;;;;;;;;;;5031973;28;20056;-74
2023/12/03 01:55:01;;;;;;;13.77;8.80;;;;;;;;;;5032025;28;20111;-74
2023/12/03 01:57:29;;;;;;;8.80;5.13;;;;;;;;;;5031541;28;20493;-74
2023/12/03 01:59:55;;;;;;;10.48;9.60;;;;;;;;;;5031444;28;20573;-74
2023/12/03 02:02:22;;;;;;;7.05;6.55;;;;;;;;;;5031397;28;20099;-74
2023/12/03 02:04:48;;;;;;;10.32;4.22;;;;;;;;;;5027826;28;20049;-73
2023/12/03 02:07:15;;;;;;;16.38;10.07;;;;;;;;;;5023483;28;20045;-73
2023/12/03 02:09:41;;;;;;;6.75;3.80;;;;;;;;;;5023966;28;20061;-73
2023/12/03 02:12:08;;;;;;;4.35;3.97;;;;;;;;;;5031423;28;20045;-73
2023/12/03 02:14:36;;;;;;;8.40;3.17;;;;;;;;;;5031661;28;20570;-74
2023/12/03 02:17:02;;;;;;;11.68;3.83;;;;;;;;;;5031595;28;20119;-75
2023/12/03 02:19:29;;;;;;;6.65;3.88;;;;;;;;;;5031618;28;20050;-73
2023/12/03 02:21:55;;;;;;;7.47;3.53;;;;;;;;;;5031555;28;20487;-74
2023/12/03 02:24:23;;;;;;;5.88;3.05;;;;;;;;;;5031532;28;20041;-75
2023/12/03 02:26:50;;;;;;;8.70;7.90;;;;;;;;;;5031559;28;20053;-74
2023/12/03 02:29:16;;;;;;;7.65;2.53;;;;;;;;;;5025196;28;20103;-74
2023/12/03 02:31:43;;;;;;;9.85;9.02;;;;;;;;;;5017121;28;20100;-75
2023/12/03 02:34:10;;;;;;;9.48;6.45;;;;;;;;;;5030225;28;20104;-75
2023/12/03 02:36:37;;;;;;;11.68;8.80;;;;;;;;;;5031381;28;20104;-75
2023/12/03 02:39:04;;;;;;;13.27;8.38;;;;;;;;;;5031223;28;20095;-75
2023/12/03 02:41:32;;;;;;;16.95;4.40;;;;;;;;;;5031467;28;20111;-75
2023/12/03 02:43:58;;;;;;;7.40;4.28;;;;;;;;;;5031247;28;20049;-75
2023/12/03 02:46:25;;;;;;;5.28;4.47;;;;;;;;;;5018265;28;20499;-75
2023/12/03 02:48:51;;;;;;;11.95;10.73;;;;;;;;;;5029092;28;20045;-76
2023/12/03 02:51:18;;;;;;;10.95;4.50;;;;;;;;;;5031198;28;20103;-74
2023/12/03 02:53:45;;;;;;;9.85;8.98;;;;;;;;;;5031379;28;20049;-74
2023/12/03 02:56:12;;;;;;;10.27;9.45;;;;;;;;;;5031134;28;20054;-74
2023/12/03 02:58:40;;;;;;;9.80;8.90;;;;;;;;;;5031107;28;20058;-74
2023/12/03 03:01:07;;;;;;;8.73;6.97;;;;;;;;;;5031084;28;20053;-74
2023/12/03 03:03:34;;;;;;;6.47;5.07;;;;;;;;;;5027830;28;20084;-73
2023/12/03 03:06:00;;;;;;;9.02;4.65;;;;;;;;;;5023088;28;20049;-73
2023/12/03 03:08:27;;;;;;;14.00;3.92;;;;;;;;;;5029175;28;20115;-74
2023/12/03 03:10:53;;;;;;;12.52;10.52;;;;;;;;;;5031087;28;20049;-75
2023/12/03 03:13:20;;;;;;;8.75;3.90;;;;;;;;;;5030768;28;20049;-75
2023/12/03 03:15:48;;;;;;;8.77;8.30;;;;;;;;;;5031305;28;20119;-74
2023/12/03 03:18:14;;;;;;;7.63;3.15;;;;;;;;;;5030975;28;20498;-74
2023/12/03 03:20:41;;;;;;;8.32;3.83;;;;;;;;;;5032585;28;20068;-74
2023/12/03 03:23:07;;;;;;;12.50;8.38;;;;;;;;;;5034761;28;20103;-74
2023/12/03 03:25:34;;;;;;;10.52;8.25;;;;;;;;;;5028707;28;20104;-72
2023/12/03 03:28:00;;;;;;;11.32;4.05;;;;;;;;;;5034164;28;20453;-74
2023/12/03 03:30:27;;;;;;;10.32;9.20;;;;;;;;;;5034723;28;20049;-74
2023/12/03 03:32:55;;;;;;;11.75;4.22;;;;;;;;;;5034549;28;20494;-73
2023/12/03 03:35:21;;;;;;;9.05;3.38;;;;;;;;;;5034434;28;20107;-73
2023/12/03 03:37:48;;;;;;;4.68;3.47;;;;;;;;;;5034496;28;20046;-73
2023/12/03 03:40:14;;;;;;;8.23;6.93;;;;;;;;;;5034314;28;20041;-73
2023/12/03 03:42:41;;;;;;;9.23;6.90;;;;;;;;;;5030919;28;20046;-73
2023/12/03 03:45:08;;;;;;;4.30;3.83;;;;;;;;;;5031275;28;20049;-73
2023/12/03 03:47:35;;;;;;;8.10;7.47;;;;;;;;;;5017955;28;20103;-73
2023/12/03 03:50:04;;;;;;;7.82;3.50;;;;;;;;;;5034047;28;20064;-73
2023/12/03 03:52:31;;;;;;;7.68;4.45;;;;;;;;;;5034035;28;20049;-73
2023/12/03 03:54:57;;;;;;;15.18;10.52;;;;;;;;;;5034418;28;20060;-73
2023/12/03 03:57:24;;;;;;;10.38;4.38;;;;;;;;;;5034014;28;20049;-73
2023/12/03 03:59:51;;;;;;;7.93;4.32;;;;;;;;;;5033881;28;20072;-73
2023/12/03 04:02:17;;;;;;;5.85;3.63;;;;;;;;;;5033941;28;20045;-74
2023/12/03 04:04:44;;;;;;;9.30;4.90;;;;;;;;;;5028791;28;20777;-72
2023/12/03 04:07:12;;;;;;;7.85;3.72;;;;;;;;;;5026366;28;20099;-73
2023/12/03 04:09:38;;;;;;;8.38;3.80;;;;;;;;;;5027368;28;20050;-73
2023/12/03 04:12:05;;;;;;;7.15;3.55;;;;;;;;;;5033667;28;20053;-73
2023/12/03 04:14:31;;;;;;;8.23;5.00;;;;;;;;;;5033768;28;20103;-73
2023/12/03 04:16:58;;;;;;;6.40;4.20;;;;;;;;;;5033911;28;20564;-73
2023/12/03 04:19:24;;;;;;;8.18;4.47;;;;;;;;;;5033728;28;20134;-73
2023/12/03 04:21:51;;;;;;;6.25;4.40;;;;;;;;;;5033602;28;20053;-74
2023/12/03 04:24:19;;;;;;;5.45;2.92;;;;;;;;;;5033560;28;20115;-74
2023/12/03 04:26:45;;;;;;;8.30;5.55;;;;;;;;;;5033675;28;20061;-74
2023/12/03 04:29:12;;;;;;;8.52;6.53;;;;;;;;;;5026538;28;20430;-74
2023/12/03 04:31:39;;;;;;;11.27;4.25;;;;;;;;;;5026398;28;20045;-74
2023/12/03 04:34:07;;;;;;;7.95;3.92;;;;;;;;;;5033451;28;20041;-74
2023/12/03 04:36:34;;;;;;;11.00;3.92;;;;;;;;;;5033342;28;20140;-74
2023/12/03 04:39:01;;;;;;;4.82;4.18;;;;;;;;;;5033412;28;20107;-75
2023/12/03 04:41:35;;;;;;;9.27;4.10;;;;;;;;;;5033472;28;20140;-75
2023/12/03 04:44:02;;;;;;;7.35;5.30;;;;;;;;;;5033293;28;20076;-74
2023/12/03 04:46:31;;;;;;;8.88;5.43;;;;;;;;;;5028050;28;20101;-73
2023/12/03 04:48:58;;;;;;;5.60;4.07;;;;;;;;;;5032355;28;20083;-75
2023/12/03 04:51:24;;;;;;;10.63;4.88;;;;;;;;;;5033174;28;20049;-75
2023/12/03 04:53:51;;;;;;;16.00;3.60;;;;;;;;;;5033285;28;20095;-75
2023/12/03 04:56:17;;;;;;;4.82;4.03;;;;;;;;;;5033180;28;20103;-75
2023/12/03 04:58:45;;;;;;;11.95;5.13;;;;;;;;;;5033100;28;20194;-75
2023/12/03 05:01:12;;;;;;;4.60;3.90;;;;;;;;;;5033073;28;20455;-75
2023/12/03 05:03:39;;;;;;;5.45;3.63;;;;;;;;;;5024275;28;20080;-75
2023/12/03 05:06:05;;;;;;;8.02;6.15;;;;;;;;;;5019349;28;20461;-75
2023/12/03 05:08:32;;;;;;;5.88;3.22;;;;;;;;;;5026428;28;20042;-75
2023/12/03 05:10:59;;;;;;;5.50;4.15;;;;;;;;;;5032655;28;20045;-76
2023/12/03 05:13:25;;;;;;;7.65;3.85;;;;;;;;;;5022771;28;20049;-75
2023/12/03 05:15:53;;;;;;;8.73;4.20;;;;;;;;;;5032834;28;20559;-76
2023/12/03 05:18:19;;;;;;;6.22;3.35;;;;;;;;;;5032659;28;20103;-75
2023/12/03 05:20:46;;;;;;;7.70;3.45;;;;;;;;;;5032713;28;20052;-75
2023/12/03 05:23:13;;;;;;;9.90;5.70;;;;;;;;;;5032485;28;20387;-75
2023/12/03 05:25:39;;;;;;;12.27;5.00;;;;;;;;;;5016700;28;20160;-75
2023/12/03 05:28:06;;;;;;;7.72;4.30;;;;;;;;;;5012640;28;20088;-75
2023/12/03 05:30:32;;;;;;;4.05;3.40;;;;;;;;;;5023636;28;20053;-75
2023/12/03 05:33:00;;;;;;;8.05;5.82;;;;;;;;;;5032342;28;20449;-75
2023/12/03 05:35:27;;;;;;;6.05;5.05;;;;;;;;;;5032339;28;20103;-76
2023/12/03 05:37:53;;;;;;;10.57;8.15;;;;;;;;;;5032358;28;20468;-75
2023/12/03 05:40:20;;;;;;;9.50;4.60;;;;;;;;;;5032518;28;20057;-75
2023/12/03 05:42:46;;;;;;;8.65;6.82;;;;;;;;;;5031112;28;20453;-75
2023/12/03 05:45:13;;;;;;;7.65;5.30;;;;;;;;;;5031896;28;20111;-76
2023/12/03 05:47:40;;;;;;;9.35;4.40;;;;;;;;;;5025969;28;20127;-76
2023/12/03 05:50:09;;;;;;;12.07;4.68;;;;;;;;;;5031516;28;20632;-75
2023/12/03 05:52:35;;;;;;;15.27;5.50;;;;;;;;;;5023655;28;20053;-74
2023/12/03 05:55:02;;;;;;;8.73;4.63;;;;;;;;;;5026844;28;20053;-75
2023/12/03 05:57:28;;;;;;;6.90;3.83;;;;;;;;;;5031715;28;20049;-75
2023/12/03 05:59:55;;;;;;;8.32;3.72;;;;;;;;;;5032221;28;20544;-75
2023/12/03 06:02:21;;;;;;;6.53;3.85;;;;;;;;;;5031771;28;20053;-75
2023/12/03 06:04:48;;;;;;;7.60;4.38;;;;;;;;;;5031894;28;20108;-75
2023/12/03 06:07:15;;;;;;;10.57;5.13;;;;;;;;;;5031614;28;20555;-75
2023/12/03 06:09:41;;;;;;;8.95;5.47;;;;;;;;;;5031777;28;20064;-75
2023/12/03 06:12:08;;;;;;;9.77;4.68;;;;;;;;;;5025720;28;20049;-74
2023/12/03 06:14:34;;;;;;;6.65;5.07;;;;;;;;;;5024846;28;20092;-74
2023/12/03 06:17:01;;;;;;;7.03;4.30;;;;;;;;;;5031370;28;20057;-75
2023/12/03 06:19:27;;;;;;;8.55;5.00;;;;;;;;;;5031504;28;20141;-75
2023/12/03 06:21:54;;;;;;;7.97;5.00;;;;;;;;;;5031700;28;20103;-75
2023/12/03 06:24:22;;;;;;;12.13;4.00;;;;;;;;;;5025395;28;20096;-75
2023/12/03 06:26:48;;;;;;;9.73;4.30;;;;;;;;;;5021941;28;20046;-75
2023/12/03 06:29:15;;;;;;;13.93;9.23;;;;;;;;;;5019386;28;20518;-75
2023/12/03 06:31:41;;;;;;;9.52;3.63;;;;;;;;;;5018675;28;20108;-75
2023/12/03 06:34:08;;;;;;;10.43;7.93;;;;;;;;;;5017801;28;20091;-76
2023/12/03 06:36:34;;;;;;;6.57;3.88;;;;;;;;;;5021360;28;20069;-75
2023/12/03 06:39:01;;;;;;;9.27;3.80;;;;;;;;;;5011410;28;20081;-76
2023/12/03 06:41:29;;;;;;;11.43;3.78;;;;;;;;;;5016908;28;20049;-75
2023/12/03 06:43:55;;;;;;;8.40;4.43;;;;;;;;;;5017180;28;20045;-74
2023/12/03 06:46:22;;;;;;;15.90;7.75;;;;;;;;;;5022164;28;20042;-75
2023/12/03 06:48:48;;;;;;;10.60;5.88;;;;;;;;;;5015764;28;20065;-75
2023/12/03 06:51:14;;;;;;;10.27;5.65;;;;;;;;;;5018725;28;20054;-73
2023/12/03 06:53:41;;;;;;;7.43;5.63;;;;;;;;;;5019997;28;20103;-75
2023/12/03 06:56:09;;;;;;;9.77;6.18;;;;;;;;;;5023715;28;20490;-75
2023/12/03 06:58:37;;;;;;;7.07;5.63;;;;;;;;;;5024446;28;20049;-75
2023/12/03 07:01:03;;;;;;;10.55;6.28;;;;;;;;;;5015330;28;20111;-75
2023/12/03 07:03:30;;;;;;;11.45;4.60;;;;;;;;;;5014890;28;20054;-75
2023/12/03 07:05:59;;;;;;;6.50;4.68;;;;;;;;;;5015081;28;20056;-75
2023/12/03 07:08:25;;;;;;;9.20;4.20;;;;;;;;;;5016677;28;20041;-75
2023/12/03 07:10:52;;;;;;;8.20;5.20;;;;;;;;;;5029045;28;20049;-75
2023/12/03 07:13:18;;;;;;;10.07;6.38;;;;;;;;;;5028415;28;20104;-75
2023/12/03 07:15:47;;;;;;;7.25;4.78;;;;;;;;;;5026522;28;20053;-75
2023/12/03 07:18:13;;;;;;;7.00;6.10;;;;;;;;;;5034454;28;20130;-75
2023/12/03 07:20:40;;;;;;;8.73;6.50;;;;;;;;;;5034223;28;20061;-74
2023/12/03 07:23:06;;;;;;;9.13;5.70;;;;;;;;;;5034643;28;20494;-75
2023/12/03 07:25:33;;;;;;;11.25;5.18;;;;;;;;;;5034433;28;20103;-74
2023/12/03 07:27:59;;;;;;;20.92;7.63;;;;;;;;;;5034463;28;20045;-76
2023/12/03 07:30:26;;;;;;;12.45;6.45;;;;;;;;;;5031410;28;20081;-75
2023/12/03 07:32:53;;;;;;;11.95;6.55;;;;;;;;;;5019723;28;20379;-75
2023/12/03 07:35:21;;;;;;;13.48;6.32;;;;;;;;;;5025550;28;20060;-73
2023/12/03 07:37:47;;;;;;;9.05;6.47;;;;;;;;;;5030289;28;20402;-74
2023/12/03 07:40:14;;;;;;;10.23;5.97;;;;;;;;;;5029042;28;20096;-74
2023/12/03 07:42:41;;;;;;;7.28;6.10;;;;;;;;;;5033841;28;20053;-74
2023/12/03 07:45:08;;;;;;;18.35;7.47;;;;;;;;;;5021323;28;20133;-74
2023/12/03 07:47:34;;;;;;;6.88;5.78;;;;;;;;;;5030411;28;20056;-73
2023/12/03 07:50:02;;;;;;;18.48;8.68;;;;;;;;;;5030255;28;20042;-74
2023/12/03 07:52:29;;;;;;;10.65;6.63;;;;;;;;;;5027607;28;20056;-73
2023/12/03 07:54:55;;;;;;;19.45;12.13;;;;;;;;;;5033817;28;20115;-74
2023/12/03 07:57:22;;;;;;;14.73;10.40;;;;;;;;;;5019164;28;20046;-73
2023/12/03 07:59:48;;;;;;;15.60;9.93;;;;;;;;;;5036063;28;20049;-73
2023/12/03 08:02:15;;;;;;;16.77;10.05;;;;;;;;;;5029648;28;20050;-74
2023/12/03 08:04:41;;;;;;;11.90;7.65;;;;;;;;;;5028130;28;20045;-74
2023/12/03 08:07:09;;;;;;;14.27;8.25;;;;;;;;;;5025787;28;20119;-74
2023/12/03 08:09:36;;;;;;;10.75;6.72;;;;;;;;;;5030595;28;20400;-73
2023/12/03 08:12:02;;;;;;;11.63;6.95;;;;;;;;;;5026904;28;20054;-73
2023/12/03 08:14:29;;;;;;;11.35;6.03;;;;;;;;;;5032964;28;20049;-74
2023/12/03 08:16:55;;;;;;;11.85;6.53;;;;;;;;;;5033175;28;20053;-74
2023/12/03 08:19:22;;;;;;;14.02;6.35;;;;;;;;;;5013751;28;20061;-74
2023/12/03 08:21:48;;;;;;;12.23;9.13;;;;;;;;;;5022751;28;20049;-74
2023/12/03 08:24:16;;;;;;;14.27;10.57;;;;;;;;;;5033157;28;20050;-74
2023/12/03 08:26:45;;;;;;;16.60;8.93;;;;;;;;;;5033170;28;20057;-74
2023/12/03 08:29:12;;;;;;;13.20;9.55;;;;;;;;;;5026418;28;20084;-75
2023/12/03 08:31:39;;;;;;;20.42;10.60;;;;;;;;;;5014175;28;20065;-74
2023/12/03 08:34:06;;;;;;;23.70;15.25;;;;;;;;;;5014079;28;20598;-74
2023/12/03 08:36:32;;;;;;;25.33;13.77;;;;;;;;;;5021836;28;20054;-74
2023/12/03 08:39:01;;;;;;;33.22;18.10;;;;;;;;;;5012961;28;20072;-73
2023/12/03 08:41:29;;;;;;;19.58;11.30;;;;;;;;;;5012969;28;20056;-74
2023/12/03 08:43:55;;;;;;;23.65;12.75;;;;;;;;;;5018428;28;20107;-74
2023/12/03 08:46:24;;;;;;;16.15;10.77;;;;;;;;;;5032600;28;20559;-74
2023/12/03 08:48:50;;;;;;;19.70;12.15;;;;;;;;;;5016386;28;20056;-74
2023/12/03 08:51:17;;;;;;;12.43;10.43;;;;;;;;;;5032902;28;20045;-74
2023/12/03 08:53:43;;;;;;;22.05;10.93;;;;;;;;;;5032265;28;20574;-73
2023/12/03 08:56:11;;;;;;;22.83;14.02;;;;;;;;;;5032088;28;20064;-73
2023/12/03 08:58:39;;;;;;;27.25;24.52;;;;;;;;;;5026617;28;20046;-73
2023/12/03 09:01:06;;;;;;;20.20;13.15;;;;;;;;;;5021528;28;20056;-75
2023/12/03 09:03:33;;;;;;;23.23;13.48;;;;;;;;;;5020515;28;20042;-72
2023/12/03 09:05:59;;;;;;;27.38;19.20;;;;;;;;;;5017605;28;20622;-70
2023/12/03 09:08:26;;;;;;;27.33;14.00;;;;;;;;;;5017768;28;20614;-72
2023/12/03 09:10:52;;;;;;;25.75;14.75;;;;;;;;;;5030253;28;20053;-72
2023/12/03 09:13:19;;;;;;;23.10;14.88;;;;;;;;;;5035257;28;20252;-73
2023/12/03 09:15:47;;;;;;;20.95;16.67;;;;;;;;;;5030897;28;20110;-72
2023/12/03 09:18:13;;;;;;;18.15;12.57;;;;;;;;;;5033155;28;20498;-72
2023/12/03 09:20:40;;;;;;;22.67;12.50;;;;;;;;;;5039925;28;20053;-78
2023/12/03 09:23:07;;;;;;;18.05;12.60;;;;;;;;;;5017331;28;20050;-76
2023/12/03 09:25:34;;;;;;;23.73;16.33;;;;;;;;;;5012368;28;20517;-73
2023/12/03 09:28:00;;;;;;;24.40;12.43;;;;;;;;;;5025602;28;20049;-73
2023/12/03 09:30:27;;;;;;;22.23;12.98;;;;;;;;;;5043476;28;20045;-73
2023/12/03 09:32:55;;;;;;;25.98;14.73;;;;;;;;;;5050462;28;20057;-74
2023/12/03 09:35:21;;;;;;;21.85;13.43;;;;;;;;;;5051700;28;20048;-74
2023/12/03 09:37:49;;;;;;;17.17;10.82;;;;;;;;;;5049032;28;20110;-73
2023/12/03 09:40:15;;;;;;;14.90;9.38;;;;;;;;;;5031242;28;20064;-75
2023/12/03 09:42:44;;;;;;;13.90;9.20;;;;;;;;;;5031307;28;20502;-75
2023/12/03 09:45:12;;;;;;;16.65;8.75;;;;;;;;;;5025234;28;20052;-73
2023/12/03 09:47:40;;;;;;;22.30;10.82;;;;;;;;;;5024595;28;20033;-74
2023/12/03 09:50:09;;;;;;;14.23;10.07;;;;;;;;;;5031323;28;20049;-74
2023/12/03 09:52:36;;;;;;;17.42;8.23;;;;;;;;;;5031747;28;20060;-74
2023/12/03 09:55:03;;;;;;;10.80;6.97;;;;;;;;;;5031593;28;20050;-74
2023/12/03 09:57:31;;;;;;;10.82;6.78;;;;;;;;;;5031603;28;20161;-75
2023/12/03 09:59:58;;;;;;;10.98;6.45;;;;;;;;;;5031529;28;20057;-74
2023/12/03 10:02:28;;;;;;;15.57;7.88;;;;;;;;;;5031480;28;20140;-73
2023/12/03 10:04:55;;;;;;;12.70;7.82;;;;;;;;;;5031099;28;20092;-72
2023/12/03 10:07:25;;;;;;;10.05;7.65;;;;;;;;;;5023599;28;20053;-75
2023/12/03 10:09:52;;;;;;;;;;;;;;;;;;5018831;28;20049;-74
2023/12/03 10:12:20;;;;;;;8.55;6.32;;;;;;;;;;5031281;28;19943;-73
2023/12/03 10:14:47;;;;;;;10.27;6.45;;;;;;;;;;5031345;28;20055;-74
2023/12/03 10:17:18;;;;;;;5.63;4.38;;;;;;;;;;5030368;28;20049;-73
2023/12/03 10:19:44;;;;;;;16.98;7.15;;;;;;;;;;5031393;28;20759;-74
2023/12/03 10:22:12;;;;;;;12.57;7.68;;;;;;;;;;5031316;28;20045;-74
2023/12/03 10:24:48;;;;;;;17.83;7.53;;;;;;;;;;5031181;28;20046;-73
2023/12/03 10:27:14;;;;;;;8.13;5.35;;;;;;;;;;5024595;28;20073;-73
2023/12/03 10:29:41;;;;;;;16.08;7.68;;;;;;;;;;5030812;28;20053;-73
2023/12/03 10:32:09;;;;;;;12.50;6.05;;;;;;;;;;5031191;28;20081;-74
2023/12/03 10:34:36;;;;;;;11.45;5.50;;;;;;;;;;5031077;28;20128;-74
2023/12/03 10:37:02;;;;;;;8.93;5.90;;;;;;;;;;5030986;28;20077;-75
2023/12/03 10:39:31;;;;;;;8.05;7.30;;;;;;;;;;5030764;28;20449;-74
2023/12/03 10:41:59;;;;;;;8.52;5.40;;;;;;;;;;5031053;28;20081;-74
2023/12/03 10:44:28;;;;;;;15.55;9.30;;;;;;;;;;5024312;28;20042;-73
2023/12/03 10:46:56;;;;;;;18.08;7.97;;;;;;;;;;5024666;28;20053;-74
2023/12/03 10:49:24;;;;;;;10.63;6.75;;;;;;;;;;5030098;28;20052;-73
2023/12/03 10:51:53;;;;;;;12.23;8.32;;;;;;;;;;5030933;28;20133;-73
2023/12/03 10:54:20;;;;;;;14.38;6.78;;;;;;;;;;5030829;28;20057;-73
2023/12/03 10:56:49;;;;;;;14.88;7.57;;;;;;;;;;5030866;28;20053;-77
2023/12/03 10:59:21;;;;;;;8.27;6.63;;;;;;;;;;5029324;28;20139;-75
2023/12/03 11:01:50;;;;;;;9.57;8.60;;;;;;;;;;5014050;28;20050;-75
2023/12/03 11:04:21;;;;;;;7.72;6.40;;;;;;;;;;5011686;28;20049;-75
2023/12/03 11:06:50;;;;;;;9.43;6.43;;;;;;;;;;5021393;28;20038;-75
2023/12/03 11:09:16;;;;;;;7.07;6.38;;;;;;;;;;5021519;28;20062;-76
2023/12/03 11:11:43;;;;;;;9.30;5.95;;;;;;;;;;5030197;28;20085;-76
2023/12/03 11:14:09;;;;;;;18.13;7.47;;;;;;;;;;5030203;28;20049;-75
2023/12/03 11:16:52;;;;;;;13.75;5.32;;;;;;;;;;5030402;28;20135;-75
2023/12/03 11:19:20;;;;;;;18.05;10.52;;;;;;;;;;5029492;28;20552;-75
2023/12/03 11:21:53;;;;;;;11.00;6.28;;;;;;;;;;5030565;28;20050;-75
2023/12/03 11:24:34;;;;;;;9.85;7.45;;;;;;;;;;5030255;28;20042;-75
2023/12/03 11:27:00;;;;;;;7.63;6.82;;;;;;;;;;5014795;28;20049;-75
2023/12/03 11:29:45;;;;;;;13.68;6.72;;;;;;;;;;5025361;28;20049;-75
2023/12/03 11:32:13;;;;;;;12.68;7.80;;;;;;;;;;5028994;28;20099;-75
2023/12/03 11:34:39;;;;;;;8.85;7.43;;;;;;;;;;5029525;28;20045;-75
2023/12/03 11:37:09;;;;;;;12.15;7.75;;;;;;;;;;5025090;28;20041;-75
2023/12/03 11:39:38;;;;;;;12.30;8.15;;;;;;;;;;5022322;28;20060;-75
2023/12/03 11:42:06;;;;;;;8.27;6.65;;;;;;;;;;5032203;28;20053;-74
2023/12/03 11:44:33;;;;;;;6.10;5.50;;;;;;;;;;5033613;28;20119;-75
2023/12/03 11:47:03;;;;;;;7.78;6.97;;;;;;;;;;5033437;28;20052;-75
2023/12/03 11:49:31;;;;;;;10.35;5.47;;;;;;;;;;5032999;28;20546;-75
2023/12/03 11:51:59;;;;;;;9.65;7.45;;;;;;;;;;5033441;28;20099;-74
2023/12/03 11:54:26;;;;;;;5.60;5.13;;;;;;;;;;5033514;28;20525;-74
2023/12/03 11:56:53;;;;;;;4.97;4.53;;;;;;;;;;5028435;28;20042;-73
2023/12/03 11:59:20;;;;;;;5.18;4.78;;;;;;;;;;5020159;28;20096;-74
2023/12/03 12:01:46;;;;;;;5.10;4.68;;;;;;;;;;5022975;28;20041;-74
2023/12/03 12:04:20;;;;;;;6.40;5.63;;;;;;;;;;5018402;28;20050;-74
2023/12/03 12:06:50;;;;;;;7.78;7.13;;;;;;;;;;5019987;28;20380;-73
2023/12/03 12:09:21;;;;;;;6.38;5.78;;;;;;;;;;5018260;28;20049;-73
2023/12/03 12:11:48;;;;;;;5.35;4.95;;;;;;;;;;5023321;28;20410;-74
2023/12/03 12:14:14;;;;;;;6.07;5.15;;;;;;;;;;5019138;28;20053;-75
2023/12/03 12:16:41;;;;;;;7.25;6.75;;;;;;;;;;5015951;28;20124;-74
2023/12/03 12:19:07;;;;;;;6.55;4.72;;;;;;;;;;5031210;28;20513;-74
2023/12/03 12:21:34;;;;;;;5.95;5.55;;;;;;;;;;5027867;28;20053;-74
2023/12/03 12:24:02;;;;;;;6.32;4.82;;;;;;;;;;5024686;28;20053;-74
2023/12/03 12:26:30;;;;;;;5.53;4.22;;;;;;;;;;5024586;28;20045;-73
2023/12/03 12:28:56;;;;;;;12.38;4.78;;;;;;;;;;5015491;28;20061;-73
2023/12/03 12:31:26;;;;;;;5.30;4.90;;;;;;;;;;5023565;28;20072;-74
2023/12/03 12:33:55;;;;;;;3.83;3.47;;;;;;;;;;5023640;28;20153;-73
2023/12/03 12:36:22;;;;;;;3.97;3.67;;;;;;;;;;5022558;28;20038;-74
2023/12/03 12:38:48;;;;;;;4.47;4.07;;;;;;;;;;5022680;28;20133;-74
2023/12/03 12:41:16;;;;;;;4.97;4.03;;;;;;;;;;5021225;28;20141;-75
2023/12/03 12:43:53;;;;;;;8.85;4.20;;;;;;;;;;5021857;28;20049;-75
2023/12/03 12:46:19;;;;;;;5.00;4.13;;;;;;;;;;5021728;28;20046;-75
2023/12/03 12:48:46;;;;;;;6.22;4.25;;;;;;;;;;5017675;28;20050;-77
2023/12/03 12:51:19;;;;;;;4.82;4.43;;;;;;;;;;5021275;28;20049;-75
2023/12/03 12:53:46;;;;;;;;;;;;;;;;;;5023015;28;20050;-75
2023/12/03 12:56:12;;;;;;;;;;;;;;;;;;5021178;28;19921;-75
2023/12/03 12:58:38;;;;;;;;;;;;;;;;;;5028417;28;20344;-75
2023/12/03 13:01:04;;;;;;;;;;;;;;;;;;5022169;28;19932;-75
2023/12/03 13:03:31;;;;;;;;;;;;;;;;;;5023350;28;19925;-75
2023/12/03 13:05:57;;;;;;;;;;;;;;;;;;5027968;28;19975;-75
2023/12/03 13:08:23;;;;;;;;;;;;;;;;;;5020473;28;20374;-75
2023/12/03 13:10:50;;;;;;;;;;;;;;;;;;5023336;28;19925;-75
2023/12/03 13:13:16;;;;;;;;;;;;;;;;;;5022487;28;19921;-74
2023/12/03 13:15:42;;;;;;;;;;;;;;;;;;5019463;28;19928;-75
2023/12/03 13:18:08;;;;;;;;;;;;;;;;;;5020786;28;19943;-76
2023/12/03 13:20:35;;;;;;;;;;;;;;;;;;5025422;28;20293;-75
2023/12/03 13:23:01;;;;;;;;;;;;;;;;;;5021261;28;20322;-75
2023/12/03 13:25:27;;;;;;;;;;;;;;;;;;5024400;28;19930;-76
2023/12/03 13:27:53;;;;;;;;;;;;;;;;;;5025193;28;19925;-75
2023/12/03 13:30:20;;;;;;;;;;;;;;;;;;5021094;28;19933;-76
2023/12/03 13:32:48;;;;;;;;;;;;;;;;;;5023753;28;20435;-75
2023/12/03 13:35:14;;;;;;;;;;;;;;;;;;5019471;28;19924;-73
2023/12/03 13:37:40;;;;;;;;;;;;;;;;;;5018983;28;19925;-76
2023/12/03 13:40:07;;;;;;;;;;;;;;;;;;5025758;28;19925;-75
2023/12/03 13:42:34;;;;;;;;;;;;;;;;;;5028922;28;19988;-76
2023/12/03 13:45:03;;;;;;;;;;;;;;;;;;5014220;28;19929;-81
2023/12/03 13:47:29;;;;;;;;;;;;;;;;;;5024675;28;19921;-80
2023/12/03 13:49:56;;;;;;;;;;;;;;;;;;5022715;28;19925;-76
2023/12/03 13:52:22;;;;;;;;;;;;;;;;;;5020613;28;19925;-75
2023/12/03 13:54:48;;;;;;;;;;;;;;;;;;5020369;28;19921;-76
2023/12/03 13:57:15;;;;;;;;;;;;;;;;;;5026401;28;20428;-75
2023/12/03 13:59:41;;;;;;;;;;;;;;;;;;5020191;28;19925;-75
2023/12/03 14:02:09;;;;;;;;;;;;;;;;;;5018614;28;19921;-76
2023/12/03 14:04:35;;;;;;;;;;;;;;;;;;5019829;28;20313;-74
2023/12/03 14:07:01;;;;;;;;;;;;;;;;;;5026589;28;19921;-75
2023/12/03 14:09:28;;;;;;;;;;;;;;;;;;5020070;28;19995;-75
2023/12/03 14:11:54;;;;;;;;;;;;;;;;;;5021621;28;19921;-76
2023/12/03 14:14:20;;;;;;;;;;;;;;;;;;5020406;28;20996;-75
2023/12/03 14:16:46;;;;;;;;;;;;;;;;;;5022902;28;19929;-75
2023/12/03 14:19:13;;;;;;;;;;;;;;;;;;5021409;28;19974;-75
2023/12/03 14:21:41;;;;;;;;;;;;;;;;;;5020854;28;19932;-76
2023/12/03 14:24:07;;;;;;;;;;;;;;;;;;5022171;28;20285;-77
2023/12/03 14:26:34;;;;;;;;;;;;;;;;;;5020961;28;19925;-76
2023/12/03 14:29:01;;;;;;;;;;;;;;;;;;5021430;28;20573;-77
2023/12/03 14:31:27;;;;;;;;;;;;;;;;;;5021336;28;19925;-76
2023/12/03 14:33:53;;;;;;;;;;;;;;;;;;5020390;28;19928;-77
2023/12/03 14:36:24;;;;;;;;;;;;;;;;;;5019261;28;19933;-75
2023/12/03 14:38:51;;;;;;;;;;;;;;;;;;5026189;28;20311;-76
2023/12/03 14:41:17;;;;;;;;;;;;;;;;;;5022524;28;19925;-75
2023/12/03 14:43:43;;;;;;;;;;;;;;;;;;5019962;28;19922;-76
2023/12/03 14:46:09;;;;;;;;;;;;;;;;;;5020771;28;19998;-76
2023/12/03 14:48:36;;;;;;;;;;;;;;;;;;5024497;28;19925;-77